Time;durP1;ratioP1;P1;durP2;ratioP2;P2;SDS_P1;SDS_P2;PMS_P1;PMS_P2;Temp;Humidity;BMP_temperature;BMP_pressure;BME280_temperature;BME280_humidity;BME280_pressure;Samples;Min_cycle;Max_cycle;Signal;HPM_P1;HPM_P2
2023/12/26 00:00:28;;;;;;;0.30;0.20;;;11.10;99.90;;;;;;5091531;28;20212;-77
2023/12/26 00:02:53;;;;;;;1.53;1.43;;;11.10;99.90;;;;;;5090445;28;20455;-79
2023/12/26 00:05:19;;;;;;;1.63;1.53;;;11.00;99.90;;;;;;5090247;28;20267;-81
2023/12/26 00:07:45;;;;;;;0.30;0.20;;;11.00;99.90;;;;;;5091725;28;20584;-81
2023/12/26 00:10:12;;;;;;;0.30;0.30;;;11.10;99.90;;;;;;5090049;28;20191;-78
2023/12/26 00:12:38;;;;;;;0.30;0.20;;;11.00;99.90;;;;;;5091516;28;20627;-78
2023/12/26 00:15:04;;;;;;;0.30;0.20;;;10.90;99.90;;;;;;5091460;28;20180;-78
2023/12/26 00:17:30;;;;;;;0.30;0.20;;;10.90;99.90;;;;;;5091514;28;20525;-81
2023/12/26 00:19:56;;;;;;;0.30;0.20;;;10.90;99.90;;;;;;5091197;28;20192;-78
2023/12/26 00:22:22;;;;;;;0.40;0.30;;;10.90;99.90;;;;;;5091360;28;20630;-79
2023/12/26 00:24:49;;;;;;;0.30;0.20;;;10.80;99.90;;;;;;5091195;28;20193;-78
2023/12/26 00:27:14;;;;;;;0.30;0.30;;;10.80;99.90;;;;;;5089746;28;20176;-81
2023/12/26 00:29:40;;;;;;;0.30;0.20;;;10.70;99.90;;;;;;5091388;28;20691;-78
2023/12/26 00:32:06;;;;;;;0.60;0.60;;;10.70;99.90;;;;;;5089656;28;20184;-79
2023/12/26 00:34:31;;;;;;;1.03;1.03;;;10.60;99.90;;;;;;5091100;28;20191;-78
2023/12/26 00:36:57;;;;;;;0.30;0.20;;;10.60;99.90;;;;;;5090789;28;20173;-78
2023/12/26 00:39:23;;;;;;;0.30;0.20;;;10.60;99.90;;;;;;5089532;28;20268;-81
2023/12/26 00:41:48;;;;;;;3.23;3.13;;;10.60;99.90;;;;;;5089368;28;20553;-81
2023/12/26 00:44:14;;;;;;;1.83;1.73;;;10.70;99.90;;;;;;5090664;28;20523;-81
2023/12/26 00:46:41;;;;;;;0.30;0.20;;;10.70;99.90;;;;;;5089603;28;20630;-78
2023/12/26 00:49:06;;;;;;;0.30;0.30;;;10.70;99.90;;;;;;5090774;28;20232;-78
2023/12/26 00:51:32;;;;;;;0.30;0.20;;;10.70;99.90;;;;;;5090957;28;20234;-81
2023/12/26 00:53:58;;;;;;;0.30;0.20;;;10.70;99.90;;;;;;5089743;28;20272;-81
2023/12/26 00:56:24;;;;;;;0.30;0.20;;;10.70;99.90;;;;;;5089382;28;20271;-80
2023/12/26 00:58:49;;;;;;;0.30;0.20;;;10.70;99.90;;;;;;5090374;28;20716;-78
2023/12/26 01:01:15;;;;;;;0.70;0.67;;;10.80;99.90;;;;;;5088961;28;20184;-81
2023/12/26 01:03:41;;;;;;;0.30;0.20;;;10.80;99.90;;;;;;5090457;28;20202;-79
2023/12/26 01:06:07;;;;;;;0.30;0.20;;;10.80;99.90;;;;;;5088834;28;20579;-81
2023/12/26 01:08:32;;;;;;;0.30;0.20;;;10.80;99.90;;;;;;5090547;28;20215;-79
2023/12/26 01:10:58;;;;;;;0.30;0.20;;;10.80;99.90;;;;;;5090219;28;20653;-78
2023/12/26 01:13:24;;;;;;;0.30;0.20;;;10.80;99.90;;;;;;5106177;28;20398;-80
2023/12/26 01:15:50;;;;;;;0.30;0.20;;;10.80;99.90;;;;;;5090109;28;20197;-79
2023/12/26 01:18:16;;;;;;;0.30;0.20;;;10.80;99.90;;;;;;5089142;28;20836;-78
2023/12/26 01:20:42;;;;;;;0.30;0.20;;;10.90;99.90;;;;;;5088734;28;20634;-81
2023/12/26 01:23:08;;;;;;;0.30;0.20;;;10.90;99.90;;;;;;5090187;28;20543;-78
2023/12/26 01:25:33;;;;;;;0.30;0.30;;;10.90;99.90;;;;;;5090113;28;20451;-78
2023/12/26 01:28:00;;;;;;;0.30;0.20;;;10.90;99.90;;;;;;5090560;28;20189;-78
2023/12/26 01:30:25;;;;;;;0.30;0.20;;;10.90;99.90;;;;;;5089014;28;20398;-79
2023/12/26 01:32:51;;;;;;;0.30;0.20;;;10.90;99.90;;;;;;5088464;28;20247;-81
2023/12/26 01:35:17;;;;;;;0.30;0.20;;;10.90;99.90;;;;;;5089012;28;20419;-81
2023/12/26 01:37:42;;;;;;;0.30;0.20;;;10.80;99.90;;;;;;5105477;28;20180;-81
2023/12/26 01:40:10;;;;;;;0.30;0.20;;;10.80;99.90;;;;;;5089701;28;20570;-78
2023/12/26 01:42:37;;;;;;;0.30;0.20;;;10.70;99.90;;;;;;5089470;28;20187;-81
2023/12/26 01:45:04;;;;;;;0.30;0.20;;;10.70;99.90;;;;;;5088349;28;20176;-81
2023/12/26 01:47:30;;;;;;;2.58;2.47;;;10.70;99.90;;;;;;5088359;28;20181;-78
2023/12/26 01:49:56;;;;;;;0.60;0.57;;;10.60;99.90;;;;;;5089716;28;20183;-78
2023/12/26 01:52:22;;;;;;;0.30;0.20;;;10.60;99.90;;;;;;5089688;28;20660;-81
2023/12/26 01:54:48;;;;;;;0.30;0.20;;;10.60;99.90;;;;;;5087296;28;20200;-78
2023/12/26 01:57:14;;;;;;;0.30;0.20;;;10.60;99.90;;;;;;5088136;28;20429;-81
2023/12/26 01:59:42;;;;;;;0.53;0.53;;;10.60;99.90;;;;;;5089630;28;20472;-79
2023/12/26 02:02:08;;;;;;;0.30;0.20;;;10.60;99.90;;;;;;5088336;28;20549;-81
2023/12/26 02:04:34;;;;;;;1.37;1.37;;;10.50;99.90;;;;;;5088411;28;20287;-81
2023/12/26 02:07:00;;;;;;;0.35;0.35;;;10.50;99.90;;;;;;5089418;28;20164;-81
2023/12/26 02:09:26;;;;;;;0.30;0.20;;;10.50;99.90;;;;;;5089816;28;20544;-78
2023/12/26 02:11:52;;;;;;;0.30;0.20;;;10.50;99.90;;;;;;5087671;28;20863;-78
2023/12/26 02:14:19;;;;;;;0.30;0.20;;;10.50;99.90;;;;;;5089686;28;20196;-78
2023/12/26 02:16:46;;;;;;;0.63;0.63;;;10.40;99.90;;;;;;5089124;28;20199;-78
2023/12/26 02:19:12;;;;;;;0.30;0.20;;;10.40;99.90;;;;;;5089631;28;20209;-81
2023/12/26 02:21:38;;;;;;;0.30;0.20;;;10.40;99.90;;;;;;5089091;28;20613;-81
2023/12/26 02:24:04;;;;;;;0.30;0.20;;;10.40;99.90;;;;;;5089492;28;20201;-78
2023/12/26 02:26:32;;;;;;;0.30;0.20;;;10.40;99.90;;;;;;5089476;28;20165;-81
2023/12/26 02:28:59;;;;;;;1.50;1.40;;;10.30;99.90;;;;;;5089111;28;20972;-80
2023/12/26 02:31:27;;;;;;;0.30;0.20;;;10.30;99.90;;;;;;5088684;28;20682;-78
2023/12/26 02:33:53;;;;;;;0.30;0.20;;;10.30;99.90;;;;;;5087551;28;20253;-79
2023/12/26 02:36:19;;;;;;;0.30;0.20;;;10.30;99.90;;;;;;5088920;28;20262;-81
2023/12/26 02:38:45;;;;;;;0.30;0.20;;;10.30;99.90;;;;;;5089257;28;20220;-81
2023/12/26 02:41:10;;;;;;;0.30;0.20;;;10.30;99.90;;;;;;5088528;28;20646;-78
2023/12/26 02:43:37;;;;;;;0.30;0.20;;;10.30;99.90;;;;;;5089105;28;20256;-78
2023/12/26 02:46:03;;;;;;;0.30;0.20;;;10.20;99.90;;;;;;5087157;28;20177;-81
2023/12/26 02:48:28;;;;;;;0.30;0.20;;;10.20;99.90;;;;;;5089368;28;20205;-78
2023/12/26 02:50:54;;;;;;;0.30;0.20;;;10.20;99.90;;;;;;5087785;28;20420;-78
2023/12/26 02:53:20;;;;;;;0.30;0.20;;;10.10;99.90;;;;;;5087878;28;20253;-80
2023/12/26 02:55:49;;;;;;;0.30;0.20;;;10.10;99.90;;;;;;5088646;28;20259;-78
2023/12/26 02:58:15;;;;;;;0.30;0.20;;;10.10;99.90;;;;;;5087074;28;20200;-78
2023/12/26 03:00:40;;;;;;;0.30;0.20;;;10.00;99.90;;;;;;5088198;28;20200;-80
2023/12/26 03:03:06;;;;;;;0.30;0.20;;;10.00;99.90;;;;;;5088882;28;20263;-78
2023/12/26 03:05:32;;;;;;;0.30;0.20;;;10.00;99.90;;;;;;5088636;28;20255;-79
2023/12/26 03:07:59;;;;;;;0.30;0.20;;;9.90;99.90;;;;;;5088786;28;20464;-80
2023/12/26 03:10:25;;;;;;;0.30;0.20;;;9.90;99.90;;;;;;5088954;28;20226;-79
2023/12/26 03:12:50;;;;;;;0.30;0.20;;;9.90;99.90;;;;;;5088644;28;20610;-81
2023/12/26 03:15:16;;;;;;;0.30;0.20;;;9.90;99.90;;;;;;5091485;28;20395;-81
2023/12/26 03:17:42;;;;;;;0.30;0.20;;;9.80;99.90;;;;;;5092574;28;20549;-81
2023/12/26 03:20:08;;;;;;;1.05;1.05;;;9.70;99.90;;;;;;5092255;28;20646;-78
2023/12/26 03:22:34;;;;;;;0.30;0.20;;;9.70;99.90;;;;;;5092439;28;20227;-78
2023/12/26 03:25:00;;;;;;;0.30;0.20;;;9.70;99.90;;;;;;5092584;28;20653;-78
2023/12/26 03:27:26;;;;;;;0.30;0.20;;;9.70;99.90;;;;;;5091094;28;20432;-77
2023/12/26 03:29:52;;;;;;;0.30;0.20;;;9.70;99.90;;;;;;5092640;28;20192;-81
2023/12/26 03:32:18;;;;;;;0.30;0.20;;;9.70;99.90;;;;;;5092044;28;20254;-78
2023/12/26 03:34:43;;;;;;;0.30;0.20;;;9.70;99.90;;;;;;5091120;28;20320;-78
2023/12/26 03:37:10;;;;;;;0.30;0.20;;;9.60;99.90;;;;;;5107778;28;20557;-81
2023/12/26 03:39:37;;;;;;;0.30;0.20;;;9.60;99.90;;;;;;5092305;28;20212;-81
2023/12/26 03:42:03;;;;;;;0.30;0.20;;;9.70;99.90;;;;;;5091969;28;20645;-77
2023/12/26 03:44:29;;;;;;;0.30;0.20;;;9.60;99.90;;;;;;5090563;28;20196;-78
2023/12/26 03:46:54;;;;;;;0.30;0.20;;;9.60;99.90;;;;;;5090744;28;20570;-78
2023/12/26 03:49:20;;;;;;;0.30;0.20;;;9.50;99.90;;;;;;5107611;28;20208;-81
2023/12/26 03:51:47;;;;;;;0.30;0.20;;;9.50;99.90;;;;;;5090558;28;20267;-81
2023/12/26 03:54:13;;;;;;;0.57;0.57;;;9.50;99.90;;;;;;5090779;28;20544;-80
2023/12/26 03:56:39;;;;;;;0.30;0.20;;;9.50;99.90;;;;;;5091805;28;20198;-78
2023/12/26 03:59:06;;;;;;;1.90;1.90;;;9.40;99.90;;;;;;5091289;28;20251;-80
2023/12/26 04:01:31;;;;;;;3.20;3.03;;;9.40;99.90;;;;;;5091593;28;20180;-81
2023/12/26 04:03:57;;;;;;;0.30;0.20;;;9.40;99.90;;;;;;5092059;28;20369;-81
2023/12/26 04:06:23;;;;;;;0.30;0.20;;;9.40;99.90;;;;;;5091829;28;20165;-80
2023/12/26 04:08:49;;;;;;;0.30;0.20;;;9.40;99.90;;;;;;5092006;28;20273;-81
2023/12/26 04:11:15;;;;;;;0.30;0.20;;;9.30;99.90;;;;;;5091443;28;20894;-81
2023/12/26 04:13:41;;;;;;;0.30;0.20;;;9.30;99.90;;;;;;5092170;28;20237;-78
2023/12/26 04:16:06;;;;;;;0.30;0.30;;;9.20;99.90;;;;;;5107102;28;20638;-78
2023/12/26 04:18:33;;;;;;;0.30;0.20;;;9.20;99.90;;;;;;5091768;28;20283;-78
2023/12/26 04:20:59;;;;;;;0.30;0.20;;;9.20;99.90;;;;;;5089578;28;20236;-77
2023/12/26 04:23:25;;;;;;;0.30;0.20;;;9.20;99.90;;;;;;5090838;28;20196;-78
2023/12/26 04:25:50;;;;;;;0.30;0.20;;;9.20;99.90;;;;;;5089434;28;20503;-78
2023/12/26 04:28:16;;;;;;;0.30;0.20;;;9.20;99.90;;;;;;5090234;28;20283;-78
2023/12/26 04:30:42;;;;;;;0.30;0.20;;;9.20;99.90;;;;;;5091018;28;20179;-81
2023/12/26 04:33:10;;;;;;;0.30;0.20;;;9.10;99.90;;;;;;5089769;28;20204;-80
2023/12/26 04:35:36;;;;;;;0.30;0.20;;;9.10;99.90;;;;;;5091352;28;20404;-81
2023/12/26 04:38:02;;;;;;;0.30;0.20;;;9.10;99.90;;;;;;5089915;28;20703;-81
2023/12/26 04:40:28;;;;;;;0.30;0.20;;;9.20;99.90;;;;;;5091187;28;20240;-81
2023/12/26 04:42:54;;;;;;;0.30;0.20;;;9.20;99.90;;;;;;5091138;28;20208;-80
2023/12/26 04:45:20;;;;;;;0.30;0.20;;;9.20;99.90;;;;;;5090891;28;20177;-81
2023/12/26 04:47:45;;;;;;;0.30;0.20;;;9.20;99.90;;;;;;5090625;28;20185;-81
2023/12/26 04:50:11;;;;;;;1.67;1.60;;;9.20;99.90;;;;;;5089731;28;20641;-79
2023/12/26 04:52:37;;;;;;;0.30;0.20;;;9.20;99.90;;;;;;5090600;28;20212;-79
2023/12/26 04:55:03;;;;;;;2.20;2.10;;;9.20;99.90;;;;;;5091009;28;20405;-81
2023/12/26 04:57:29;;;;;;;0.30;0.20;;;9.20;99.90;;;;;;5090089;28;20529;-78
2023/12/26 04:59:55;;;;;;;0.30;0.20;;;9.20;99.90;;;;;;5088943;28;20215;-78
2023/12/26 05:02:21;;;;;;;0.30;0.20;;;9.20;99.90;;;;;;5090332;28;20407;-81
2023/12/26 05:04:47;;;;;;;0.30;0.20;;;9.20;99.90;;;;;;5089405;28;20937;-78
2023/12/26 05:07:13;;;;;;;2.60;2.50;;;9.20;99.90;;;;;;5089200;28;20437;-78
2023/12/26 05:09:39;;;;;;;0.30;0.20;;;9.20;99.90;;;;;;5090869;28;20196;-78
2023/12/26 05:12:06;;;;;;;0.30;0.20;;;9.10;99.90;;;;;;5090522;28;20220;-81
2023/12/26 05:14:32;;;;;;;0.30;0.20;;;9.10;99.90;;;;;;5090343;28;20246;-77
2023/12/26 05:16:57;;;;;;;0.30;0.20;;;9.10;99.90;;;;;;5090476;28;20168;-77
2023/12/26 05:19:23;;;;;;;0.30;0.20;;;9.10;99.90;;;;;;5090097;28;20200;-78
2023/12/26 05:21:48;;;;;;;0.30;0.20;;;9.10;99.90;;;;;;5090453;28;20289;-78
2023/12/26 05:24:14;;;;;;;0.30;0.20;;;9.00;99.90;;;;;;5089095;28;20200;-81
2023/12/26 05:26:41;;;;;;;0.30;0.20;;;9.00;99.90;;;;;;5090343;28;20246;-79
2023/12/26 05:29:07;;;;;;;0.30;0.20;;;9.00;99.90;;;;;;5088789;28;20212;-81
2023/12/26 05:31:33;;;;;;;0.30;0.20;;;9.00;99.90;;;;;;5088630;28;20176;-78
2023/12/26 05:34:02;;;;;;;0.30;0.20;;;9.00;99.90;;;;;;5090224;28;20705;-80
2023/12/26 05:36:27;;;;;;;0.30;0.20;;;9.00;99.90;;;;;;5090052;28;20419;-78
2023/12/26 05:38:53;;;;;;;0.30;0.20;;;9.00;99.90;;;;;;5090008;28;20275;-78
2023/12/26 05:41:19;;;;;;;0.30;0.20;;;9.00;99.90;;;;;;5089865;28;20169;-80
2023/12/26 05:43:45;;;;;;;0.30;0.20;;;9.00;99.90;;;;;;5089607;28;20250;-81
2023/12/26 05:46:11;;;;;;;0.30;0.20;;;9.00;99.90;;;;;;5089110;28;20172;-78
2023/12/26 05:48:36;;;;;;;0.30;0.20;;;9.10;99.90;;;;;;5090028;28;20692;-78
2023/12/26 05:51:03;;;;;;;0.63;0.63;;;9.10;99.90;;;;;;5089517;28;20157;-78
2023/12/26 05:53:30;;;;;;;0.30;0.20;;;9.00;99.90;;;;;;5088437;28;20724;-81
2023/12/26 05:55:59;;;;;;;0.30;0.20;;;9.00;99.90;;;;;;5089376;28;20625;-81
2023/12/26 05:58:25;;;;;;;0.30;0.20;;;9.00;99.90;;;;;;5088460;28;20348;-78
2023/12/26 06:00:52;;;;;;;0.30;0.20;;;9.00;99.90;;;;;;5089071;28;20200;-78
2023/12/26 06:03:18;;;;;;;0.30;0.20;;;9.00;99.90;;;;;;5089858;28;20188;-79
2023/12/26 06:05:45;;;;;;;0.30;0.20;;;9.00;99.90;;;;;;5089438;28;20182;-81
2023/12/26 06:08:11;;;;;;;0.30;0.20;;;8.90;99.90;;;;;;5089499;28;20211;-77
2023/12/26 06:10:36;;;;;;;0.30;0.30;;;9.00;99.90;;;;;;5089586;28;20566;-81
2023/12/26 06:13:03;;;;;;;0.30;0.20;;;9.00;99.90;;;;;;5089185;28;20447;-80
2023/12/26 06:15:30;;;;;;;0.30;0.20;;;9.00;99.90;;;;;;5088999;28;20348;-78
2023/12/26 06:17:57;;;;;;;0.30;0.20;;;9.00;99.90;;;;;;5089553;28;20220;-78
2023/12/26 06:20:24;;;;;;;0.30;0.20;;;9.00;99.90;;;;;;5089283;28;20565;-78
2023/12/26 06:22:50;;;;;;;0.30;0.20;;;9.10;99.90;;;;;;5087250;28;20678;-81
2023/12/26 06:25:17;;;;;;;0.30;0.20;;;9.10;99.90;;;;;;5088078;28;20261;-80
2023/12/26 06:27:42;;;;;;;0.30;0.30;;;9.10;99.90;;;;;;5088760;28;20176;-81
2023/12/26 06:30:10;;;;;;;0.30;0.20;;;9.10;99.90;;;;;;5089050;28;20255;-81
2023/12/26 06:32:36;;;;;;;0.30;0.20;;;9.10;99.90;;;;;;5088916;28;20207;-81
2023/12/26 06:35:02;;;;;;;0.30;0.20;;;9.10;99.90;;;;;;5088896;28;20622;-81
2023/12/26 06:37:27;;;;;;;0.30;0.20;;;9.10;99.90;;;;;;5087602;28;20186;-80
2023/12/26 06:39:53;;;;;;;0.30;0.20;;;9.10;99.90;;;;;;5089013;28;20208;-81
2023/12/26 06:42:19;;;;;;;0.30;0.20;;;9.10;99.90;;;;;;5087331;28;20180;-81
2023/12/26 06:44:44;;;;;;;0.30;0.30;;;9.10;99.90;;;;;;5087748;28;20539;-81
2023/12/26 06:47:12;;;;;;;0.43;0.43;;;9.10;99.90;;;;;;5090343;28;20421;-81
2023/12/26 06:49:42;;;;;;;0.30;0.20;;;9.10;99.90;;;;;;5094712;28;20215;-78
2023/12/26 06:52:07;;;;;;;1.25;1.25;;;9.10;99.90;;;;;;5095313;28;20172;-81
2023/12/26 06:54:33;;;;;;;0.30;0.20;;;9.10;99.90;;;;;;5095741;28;20192;-78
2023/12/26 06:57:05;;;;;;;0.30;0.20;;;9.00;99.90;;;;;;5095379;28;20446;-80
2023/12/26 06:59:31;;;;;;;0.30;0.20;;;9.00;99.90;;;;;;5093253;28;20231;-81
2023/12/26 07:01:57;;;;;;;0.60;0.60;;;9.00;99.90;;;;;;5095160;28;20160;-79
2023/12/26 07:04:23;;;;;;;0.30;0.20;;;9.00;99.90;;;;;;5095723;28;20215;-80
2023/12/26 07:06:48;;;;;;;0.30;0.20;;;9.10;99.90;;;;;;5095591;28;20168;-78
2023/12/26 07:09:14;;;;;;;0.30;0.20;;;9.10;99.90;;;;;;5094261;28;20199;-78
2023/12/26 07:11:40;;;;;;;0.30;0.20;;;9.10;99.90;;;;;;5095423;28;20169;-80
2023/12/26 07:14:06;;;;;;;0.30;0.20;;;9.20;99.90;;;;;;5095725;28;20279;-81
2023/12/26 07:16:33;;;;;;;10.87;10.07;;;9.20;99.90;;;;;;5093735;28;20176;-80
2023/12/26 07:18:59;;;;;;;0.30;0.20;;;9.20;99.90;;;;;;5111054;28;20555;-78
2023/12/26 07:21:25;;;;;;;0.30;0.20;;;9.30;99.90;;;;;;5095004;28;20307;-78
2023/12/26 07:23:50;;;;;;;0.30;0.20;;;9.30;99.90;;;;;;5095336;28;20429;-81
2023/12/26 07:26:16;;;;;;;0.30;0.20;;;9.30;99.90;;;;;;5093762;28;20184;-78
2023/12/26 07:28:42;;;;;;;0.30;0.20;;;9.40;99.90;;;;;;5094306;28;20738;-81
2023/12/26 07:31:08;;;;;;;3.38;2.65;;;9.50;99.90;;;;;;5095432;28;20454;-81
2023/12/26 07:33:33;;;;;;;0.93;0.93;;;9.70;99.90;;;;;;5095466;28;20188;-78
2023/12/26 07:36:01;;;;;;;0.30;0.20;;;9.80;99.90;;;;;;5095179;28;20214;-81
2023/12/26 07:38:27;;;;;;;0.55;0.55;;;9.80;99.90;;;;;;5095428;28;20770;-78
2023/12/26 07:40:52;;;;;;;0.90;0.90;;;9.90;99.90;;;;;;5093690;28;20761;-81
2023/12/26 07:43:18;;;;;;;0.30;0.20;;;10.00;99.90;;;;;;5095517;28;20223;-81
2023/12/26 07:45:44;;;;;;;0.30;0.20;;;10.10;99.90;;;;;;5093414;28;20177;-81
2023/12/26 07:48:10;;;;;;;0.63;0.63;;;10.10;99.90;;;;;;5093704;28;20199;-78
2023/12/26 07:50:36;;;;;;;0.30;0.20;;;10.20;99.90;;;;;;5095148;28;20173;-81
2023/12/26 07:53:04;;;;;;;0.30;0.20;;;10.20;99.90;;;;;;5095233;28;20255;-78
2023/12/26 07:55:32;;;;;;;8.68;8.15;;;10.30;99.90;;;;;;5094972;28;20405;-78
2023/12/26 07:57:58;;;;;;;0.30;0.20;;;10.30;99.90;;;;;;5094307;28;20199;-79
2023/12/26 08:00:23;;;;;;;0.30;0.20;;;10.40;99.90;;;;;;5090451;28;20613;-81
2023/12/26 08:02:49;;;;;;;2.00;0.87;;;10.40;99.90;;;;;;5091710;28;20795;-81
2023/12/26 08:05:15;;;;;;;5.13;2.50;;;10.40;99.90;;;;;;5091918;28;20255;-78
2023/12/26 08:07:41;;;;;;;0.30;0.30;;;10.50;99.90;;;;;;5091852;28;20172;-81
2023/12/26 08:10:07;;;;;;;0.30;0.20;;;10.50;99.90;;;;;;5092022;28;20443;-81
2023/12/26 08:12:33;;;;;;;0.30;0.20;;;10.50;99.90;;;;;;5090089;28;20478;-81
2023/12/26 08:14:58;;;;;;;0.30;0.20;;;10.60;99.90;;;;;;5091636;28;20161;-81
2023/12/26 08:17:24;;;;;;;0.30;0.20;;;10.60;99.90;;;;;;5091435;28;20180;-81
2023/12/26 08:19:50;;;;;;;0.30;0.20;;;10.70;99.90;;;;;;5091325;28;20204;-81
2023/12/26 08:22:16;;;;;;;0.30;0.20;;;10.70;99.90;;;;;;5091345;28;20195;-81
2023/12/26 08:24:42;;;;;;;4.40;4.23;;;10.80;99.90;;;;;;5091816;28;20766;-78
2023/12/26 08:27:07;;;;;;;0.30;0.20;;;10.80;99.90;;;;;;5090695;28;20398;-78
2023/12/26 08:29:33;;;;;;;0.60;0.60;;;10.90;99.90;;;;;;5091527;28;20477;-78
2023/12/26 08:31:59;;;;;;;1.13;1.13;;;11.00;99.90;;;;;;5091020;28;20806;-78
2023/12/26 08:34:25;;;;;;;0.40;0.40;;;11.00;99.90;;;;;;5089959;28;20258;-80
2023/12/26 08:36:51;;;;;;;0.30;0.20;;;11.10;99.90;;;;;;5089859;28;20211;-80
2023/12/26 08:39:17;;;;;;;17.70;16.63;;;11.20;99.90;;;;;;5091283;28;20687;-81
2023/12/26 08:41:43;;;;;;;0.30;0.20;;;11.20;99.90;;;;;;5090790;28;20886;-81
2023/12/26 08:44:09;;;;;;;0.30;0.20;;;11.30;99.90;;;;;;5091049;28;20199;-81
2023/12/26 08:46:35;;;;;;;12.05;11.43;;;11.40;99.90;;;;;;5089443;28;20428;-81
2023/12/26 08:49:03;;;;;;;0.30;0.20;;;11.40;99.90;;;;;;5106689;28;20661;-81
2023/12/26 08:51:29;;;;;;;0.30;0.22;;;11.50;99.90;;;;;;5090665;28;20424;-81
2023/12/26 08:53:55;;;;;;;2.55;2.45;;;11.60;99.90;;;;;;5089830;28;20203;-79
2023/12/26 08:56:24;;;;;;;2.53;2.35;;;11.70;99.90;;;;;;5087599;28;20189;-78
2023/12/26 08:58:50;;;;;;;1.20;1.20;;;11.70;99.90;;;;;;5089308;28;20189;-78
2023/12/26 09:01:16;;;;;;;0.30;0.20;;;11.80;99.90;;;;;;5088463;28;21007;-78
2023/12/26 09:03:41;;;;;;;0.30;0.20;;;11.80;99.90;;;;;;5088869;28;20595;-81
2023/12/26 09:06:11;;;;;;;0.30;0.20;;;11.90;99.90;;;;;;5088192;28;20260;-81
2023/12/26 09:08:37;;;;;;;0.30;0.20;;;12.00;99.90;;;;;;5088954;28;20274;-78
2023/12/26 09:11:03;;;;;;;3.40;2.10;;;12.20;99.90;;;;;;5105380;28;20413;-81
2023/12/26 09:13:29;;;;;;;0.30;0.20;;;12.50;99.90;;;;;;5104352;28;20539;-81
2023/12/26 09:15:55;;;;;;;0.40;0.30;;;12.90;99.90;;;;;;5104324;28;20831;-78
2023/12/26 09:18:21;;;;;;;0.80;0.80;;;13.40;99.90;;;;;;5104305;28;20214;-78
2023/12/26 09:20:47;;;;;;;0.97;0.87;;;14.30;99.90;;;;;;5088560;28;20995;-79
2023/12/26 09:23:13;;;;;;;1.50;1.17;;;15.50;99.90;;;;;;5088898;28;20442;-81
2023/12/26 09:25:39;;;;;;;0.80;0.60;;;16.50;99.90;;;;;;5088327;28;20191;-79
2023/12/26 09:28:09;;;;;;;0.40;0.40;;;17.40;99.90;;;;;;5089695;28;20441;-81
2023/12/26 09:30:36;;;;;;;0.40;0.20;;;17.90;99.90;;;;;;5105746;28;20993;-81
2023/12/26 09:33:03;;;;;;;0.40;0.20;;;18.30;99.90;;;;;;5090138;28;20467;-81
2023/12/26 09:35:29;;;;;;;0.40;0.20;;;18.70;99.90;;;;;;5090234;28;20496;-80
2023/12/26 09:37:55;;;;;;;0.30;0.20;;;18.70;99.90;;;;;;5105756;28;20796;-80
2023/12/26 09:40:21;;;;;;;0.40;0.30;;;18.40;99.90;;;;;;5090151;28;20474;-81
2023/12/26 09:42:46;;;;;;;0.57;0.57;;;18.10;99.90;;;;;;5105391;28;20203;-79
2023/12/26 09:45:14;;;;;;;0.80;0.80;;;18.20;99.90;;;;;;5105302;28;20263;-81
2023/12/26 09:47:43;;;;;;;1.57;1.23;;;18.60;99.90;;;;;;5104725;28;20175;-79
2023/12/26 09:50:10;;;;;;;0.50;0.50;;;19.10;99.90;;;;;;5089587;28;20417;-80
2023/12/26 09:52:36;;;;;;;0.83;0.83;;;19.70;99.90;;;;;;5105014;28;20432;-79
2023/12/26 09:55:03;;;;;;;0.40;0.20;;;20.30;99.90;;;;;;5105354;28;20687;-79
2023/12/26 09:57:29;;;;;;;0.40;0.30;;;20.90;99.90;;;;;;5089611;28;20428;-80
2023/12/26 09:59:56;;;;;;;2.37;2.27;;;21.00;99.90;;;;;;5089531;28;20989;-79
2023/12/26 10:02:22;;;;;;;0.80;0.60;;;21.10;99.90;;;;;;5088335;28;20948;-81
2023/12/26 10:04:48;;;;;;;0.33;0.20;;;20.90;99.90;;;;;;5104650;28;20512;-81
2023/12/26 10:07:23;;;;;;;1.70;1.60;;;20.50;99.90;;;;;;5105178;28;20413;-80
2023/12/26 10:09:48;;;;;;;3.93;3.73;;;20.00;99.90;;;;;;5105446;28;20448;-79
2023/12/26 10:12:14;;;;;;;0.40;0.20;;;19.50;99.90;;;;;;5089123;28;20506;-80
2023/12/26 10:14:40;;;;;;;0.40;0.20;;;19.00;99.90;;;;;;5089420;28;20205;-81
2023/12/26 10:17:07;;;;;;;0.33;0.20;;;18.60;99.90;;;;;;5104770;28;20180;-81
2023/12/26 10:19:33;;;;;;;0.40;0.20;;;18.30;99.90;;;;;;5089661;28;20721;-81
2023/12/26 10:21:59;;;;;;;3.30;3.07;;;18.10;99.90;;;;;;5103783;28;20511;-81
2023/12/26 10:24:24;;;;;;;0.80;0.80;;;17.70;99.90;;;;;;5089095;28;20424;-81
2023/12/26 10:26:50;;;;;;;2.57;2.47;;;17.40;99.90;;;;;;5089016;28;20289;-79
2023/12/26 10:29:16;;;;;;;9.23;8.73;;;17.10;99.90;;;;;;5089148;28;20212;-81
2023/12/26 10:31:43;;;;;;;0.30;0.20;;;17.00;99.90;;;;;;5104933;28;20197;-81
2023/12/26 10:34:18;;;;;;;0.30;0.20;;;16.80;99.90;;;;;;5089257;28;20499;-81
2023/12/26 10:36:44;;;;;;;0.30;0.20;;;16.70;99.90;;;;;;5089059;28;20485;-79
2023/12/26 10:39:11;;;;;;;0.40;0.30;;;16.60;99.90;;;;;;5089451;28;20449;-81
2023/12/26 10:41:44;;;;;;;0.33;0.30;;;16.50;99.90;;;;;;5104560;28;20774;-80
2023/12/26 10:44:11;;;;;;;0.30;0.20;;;16.30;99.90;;;;;;5104667;28;20799;-81
2023/12/26 10:46:40;;;;;;;4.10;1.33;;;16.20;99.90;;;;;;5089433;28;20745;-79
2023/12/26 10:49:10;;;;;;;0.30;0.20;;;16.20;99.90;;;;;;5088944;28;21110;-78
2023/12/26 10:51:39;;;;;;;0.30;0.30;;;16.20;99.90;;;;;;5088656;28;20409;-81
2023/12/26 10:54:22;;;;;;;11.90;3.60;;;16.10;99.90;;;;;;5104308;28;20535;-82
2023/12/26 10:56:49;;;;;;;0.40;0.40;;;16.10;99.90;;;;;;5104431;28;20705;-81
2023/12/26 13:51:42;;;;;;;0.40;0.40;;;18.20;99.90;;;;;;5089009;28;20440;-79
2023/12/26 13:54:45;;;;;;;0.73;0.73;;;18.30;99.90;;;;;;5089861;28;20541;-81
2023/12/26 13:57:48;;;;;;;0.30;0.20;;;18.40;99.90;;;;;;5104993;28;20441;-81
2023/12/26 14:00:14;;;;;;;0.30;0.30;;;18.60;99.90;;;;;;5105494;28;21147;-81
2023/12/26 14:02:39;;;;;;;0.40;0.40;;;18.60;99.90;;;;;;5089411;28;20432;-81
2023/12/26 14:05:05;;;;;;;0.40;0.30;;;18.60;99.90;;;;;;5105249;28;20294;-81
2023/12/26 14:07:31;;;;;;;0.30;0.20;;;18.60;99.90;;;;;;5089536;28;20171;-81
2023/12/26 14:09:57;;;;;;;0.40;0.40;;;18.50;99.90;;;;;;5089645;28;20427;-80
2023/12/26 14:12:24;;;;;;;3.37;1.27;;;18.50;99.90;;;;;;5089616;28;20414;-80
2023/12/26 14:14:49;;;;;;;0.30;0.20;;;18.40;99.90;;;;;;5088550;28;20478;-80
2023/12/26 14:17:15;;;;;;;0.83;0.83;;;18.30;99.90;;;;;;5104982;28;20436;-80
2023/12/26 14:19:41;;;;;;;1.17;1.17;;;18.20;99.90;;;;;;5089128;28;20670;-80
2023/12/26 14:22:06;;;;;;;0.80;0.60;;;18.00;99.90;;;;;;5089333;28;20203;-81
2023/12/26 14:24:32;;;;;;;0.30;0.20;;;18.00;99.90;;;;;;5089132;28;20218;-81
2023/12/26 14:26:58;;;;;;;2.10;2.00;;;17.90;99.90;;;;;;5089134;28;20168;-80
2023/12/26 14:29:23;;;;;;;0.30;0.20;;;17.80;99.90;;;;;;5104814;28;20225;-80
2023/12/26 14:31:49;;;;;;;1.27;1.17;;;17.70;99.90;;;;;;5088869;28;20175;-81
2023/12/26 14:34:15;;;;;;;0.40;0.30;;;17.60;99.90;;;;;;5104955;28;20198;-80
2023/12/26 14:36:41;;;;;;;0.40;0.37;;;17.50;99.90;;;;;;5089053;28;20194;-79
2023/12/26 14:39:07;;;;;;;0.77;0.73;;;17.40;99.90;;;;;;5088915;28;20443;-79
2023/12/26 14:41:33;;;;;;;0.30;0.20;;;17.30;99.90;;;;;;5104523;28;20700;-80
2023/12/26 14:43:58;;;;;;;0.30;0.20;;;17.20;99.90;;;;;;5087640;28;20197;-81
2023/12/26 14:46:24;;;;;;;0.40;0.40;;;17.10;99.90;;;;;;5089041;28;20186;-81
2023/12/26 14:48:50;;;;;;;0.80;0.80;;;17.00;99.90;;;;;;5104436;28;20264;-79
2023/12/26 14:51:16;;;;;;;0.43;0.43;;;16.90;99.90;;;;;;5088410;28;20184;-79
2023/12/26 14:53:41;;;;;;;0.77;0.70;;;16.80;99.90;;;;;;5104639;28;20201;-79
2023/12/26 14:56:07;;;;;;;0.40;0.30;;;16.80;99.90;;;;;;5104363;28;20220;-79
2023/12/26 14:58:32;;;;;;;0.70;0.70;;;16.70;99.90;;;;;;5103926;28;20197;-79
2023/12/26 15:00:58;;;;;;;5.53;5.03;;;16.70;99.90;;;;;;5103293;28;20212;-79
2023/12/26 15:03:24;;;;;;;2.80;2.60;;;16.50;99.90;;;;;;5087929;28;20197;-82
2023/12/26 15:05:50;;;;;;;2.93;2.83;;;16.50;99.90;;;;;;5103774;28;20247;-82
2023/12/26 15:08:15;;;;;;;5.23;1.43;;;16.40;99.90;;;;;;5089555;28;20522;-79
2023/12/26 15:10:41;;;;;;;1.57;1.50;;;16.40;99.90;;;;;;5107916;28;20223;-82
2023/12/26 15:13:07;;;;;;;0.40;0.37;;;16.30;99.90;;;;;;5107319;28;20196;-79
2023/12/26 15:15:33;;;;;;;30.33;2.20;;;16.20;99.90;;;;;;5091765;28;20247;-82
2023/12/26 15:17:59;;;;;;;0.30;0.20;;;16.20;99.90;;;;;;5091984;28;20712;-81
2023/12/26 15:20:24;;;;;;;0.80;0.60;;;16.10;99.90;;;;;;5092431;28;20239;-81
2023/12/26 15:22:50;;;;;;;0.40;0.40;;;16.00;99.90;;;;;;5092248;28;20460;-82
2023/12/26 15:25:16;;;;;;;1.27;1.20;;;16.00;99.90;;;;;;5108436;28;20319;-79
2023/12/26 15:27:42;;;;;;;0.40;0.30;;;15.90;99.90;;;;;;5092500;28;20261;-82
2023/12/26 15:30:09;;;;;;;0.80;0.80;;;15.80;99.90;;;;;;5108193;28;20187;-81
2023/12/26 15:32:35;;;;;;;0.40;0.40;;;15.80;99.90;;;;;;5092228;28;20421;-79
2023/12/26 15:35:03;;;;;;;0.30;0.20;;;15.80;99.90;;;;;;5107919;28;20774;-82
2023/12/26 15:37:29;;;;;;;1.23;1.10;;;15.70;99.90;;;;;;5092286;28;20470;-81